Flagler Beach, Florida
Current Conditions -  °F | °C
As of 11:53 PM on Saturday 22 Nov 2014 (Local Time) from KDAB Reporting Station
Overcast Overcast  
Wind Chill: 73°   Ceiling: 4000
Heat Index: 73°   Visibility: 9mi
Dew Point: 65°   Wind: 6mph
Humidity: 76%   Direction: 100°E
Pressure: 30.13"   Gusts: 17mph
Location:  29.47°N, 81.13°W
Report Text: KDAB 230453Z 10005G15KT 9SM BKN040 OVC050 23/18 A3013 RMK AO2 SLP203 T02280183 402280206
Loading
Personal Weather Stations






























Interactive Weather Map New forecast layout! Learn more

10-Day Weather Forecast

Advertisements
Track Severe Weather on mobile